Alice, Texas
Current Conditions -  °F | °C
As of 7:53 PM on Sunday 23 Nov 2014 (Local Time) from KALI Reporting Station
Clear Clear  
Wind Chill: 60°   Ceiling: Unl
Heat Index: 60°   Visibility: 10mi
Dew Point: 53°   Wind: 5mph
Humidity: 78%   Direction: 190°S
Pressure: 29.67"   Gusts: NA
Location:  27.75°N, 98.06°W
Report Text: KALI 240153Z AUTO 19004KT 10SM CLR 16/12 A2967 RMK AO2 SLP046 T01560117
Loading
Personal Weather Stations






























Interactive Weather Map New forecast layout! Learn more

10-Day Weather Forecast

Advertisements
Track Severe Weather on mobile